createdAt,value
2018-09-20T00:00:22.075Z,68.85
2018-09-20T00:02:51.252Z,68.96
2018-09-20T00:05:20.146Z,69.59
2018-09-20T00:07:49.027Z,68.73
2018-09-20T00:10:18.245Z,69.70
2018-09-20T00:12:47.473Z,70.15
2018-09-20T00:15:16.355Z,69.23
2018-09-20T00:17:45.669Z,69.73
2018-09-20T00:20:14.588Z,68.93
2018-09-20T00:22:43.480Z,68.98
2018-09-20T00:25:12.534Z,68.84
2018-09-20T00:27:41.527Z,69.03
2018-09-20T00:30:10.550Z,69.03
2018-09-20T00:32:39.456Z,69.00
2018-09-20T00:35:08.360Z,68.40
2018-09-20T00:37:37.410Z,69.54
2018-09-20T00:40:06.645Z,69.49
2018-09-20T00:42:35.588Z,68.77
2018-09-20T00:45:04.499Z,69.01
2018-09-20T00:47:33.453Z,69.47
2018-09-20T00:50:02.315Z,69.43
2018-09-20T00:52:31.195Z,69.33
2018-09-20T00:55:00.446Z,69.51
2018-09-20T00:57:29.363Z,69.62
2018-09-20T00:59:58.265Z,69.81
2018-09-20T01:02:27.175Z,70.69
2018-09-20T01:04:56.074Z,70.03
2018-09-20T01:07:24.991Z,70.65
2018-09-20T01:09:53.872Z,71.53
2018-09-20T01:12:22.762Z,71.13
2018-09-20T01:14:51.853Z,70.06
2018-09-20T01:17:20.792Z,71.50
2018-09-20T01:19:49.694Z,71.11
2018-09-20T01:22:18.590Z,71.26
2018-09-20T01:24:47.528Z,71.25
2018-09-20T01:27:16.732Z,71.30
2018-09-20T01:29:45.692Z,71.13
2018-09-20T01:32:14.585Z,71.34
2018-09-20T01:34:43.527Z,71.82
2018-09-20T01:37:12.416Z,71.58
2018-09-20T01:39:41.312Z,71.33
2018-09-20T01:42:10.227Z,71.16
2018-09-20T01:44:39.108Z,71.71
2018-09-20T01:47:08.021Z,71.29
2018-09-20T01:49:36.960Z,71.98
2018-09-20T01:52:05.844Z,71.14
2018-09-20T01:54:34.798Z,72.07
2018-09-20T01:57:03.821Z,72.20
2018-09-20T01:59:32.755Z,72.03
2018-09-20T02:02:01.702Z,71.75
2018-09-20T02:04:30.916Z,71.79
2018-09-20T02:06:59.796Z,72.28
2018-09-20T02:09:28.667Z,71.72
2018-09-20T02:11:57.593Z,72.63
2018-09-20T02:14:26.482Z,72.43
2018-09-20T02:16:55.639Z,72.92
2018-09-20T02:19:24.644Z,73.13
2018-09-20T02:21:53.540Z,72.81
2018-09-20T02:24:22.466Z,72.58
2018-09-20T02:26:51.348Z,72.88
2018-09-20T02:29:20.651Z,73.31
2018-09-20T02:31:49.529Z,72.74
2018-09-20T02:34:18.425Z,72.79
2018-09-20T02:36:47.331Z,72.69
2018-09-20T02:39:16.251Z,73.15
2018-09-20T02:41:45.283Z,72.96
2018-09-20T02:44:14.213Z,72.43
2018-09-20T02:46:43.140Z,72.91
2018-09-20T02:49:12.083Z,73.11
2018-09-20T02:51:40.964Z,72.97
2018-09-20T02:54:09.987Z,72.55
2018-09-20T02:56:38.997Z,72.89
2018-09-20T02:59:07.984Z,72.93
2018-09-20T03:01:36.831Z,72.70
2018-09-20T03:04:05.857Z,73.48
2018-09-20T03:06:34.879Z,72.28
2018-09-20T03:09:04.084Z,73.33
2018-09-20T03:11:32.963Z,73.09
2018-09-20T03:14:01.881Z,73.01
2018-09-20T03:16:31.039Z,73.43
2018-09-20T03:18:59.915Z,72.34
2018-09-20T03:21:28.797Z,72.65
2018-09-20T03:23:57.931Z,72.87
2018-09-20T03:26:26.852Z,72.51
2018-09-20T03:28:55.790Z,73.12
2018-09-20T03:31:24.703Z,73.09
2018-09-20T03:33:53.592Z,73.01
2018-09-20T03:36:22.503Z,73.04
2018-09-20T03:38:51.519Z,72.96
2018-09-20T03:41:20.434Z,73.54
2018-09-20T03:43:49.316Z,73.65
2018-09-20T03:46:18.235Z,73.26
2018-09-20T03:48:47.104Z,72.93
2018-09-20T03:51:15.987Z,73.33
2018-09-20T03:53:44.890Z,73.36
2018-09-20T03:56:14.487Z,73.37
2018-09-20T03:58:43.380Z,73.84
2018-09-20T04:01:12.549Z,73.03
2018-09-20T04:03:41.394Z,72.86
2018-09-20T04:06:10.329Z,73.43
2018-09-20T04:08:39.228Z,73.05
2018-09-20T04:11:08.117Z,73.37
2018-09-20T04:13:36.987Z,73.55
2018-09-20T04:16:05.911Z,73.11
2018-09-20T04:18:34.848Z,72.78
2018-09-20T04:21:03.740Z,73.22
2018-09-20T04:23:32.887Z,73.59
2018-09-20T04:26:01.787Z,73.13
2018-09-20T04:28:30.634Z,73.60
2018-09-20T04:30:59.549Z,73.32
2018-09-20T04:33:28.435Z,73.56
2018-09-20T04:35:57.299Z,73.83
2018-09-20T04:38:26.236Z,73.79
2018-09-20T04:40:55.159Z,73.86
2018-09-20T04:43:24.046Z,74.04
2018-09-20T04:45:52.974Z,74.15
2018-09-20T04:48:21.855Z,73.76
2018-09-20T04:50:50.741Z,73.79
2018-09-20T04:53:19.701Z,74.37
2018-09-20T04:55:48.538Z,74.49
2018-09-20T04:58:17.447Z,73.38
2018-09-20T05:00:46.324Z,73.81
2018-09-20T05:03:15.269Z,74.62
2018-09-20T05:05:44.333Z,74.84
2018-09-20T05:08:13.220Z,74.25
2018-09-20T05:10:42.097Z,74.33
2018-09-20T05:13:11.008Z,74.88
2018-09-20T05:15:39.922Z,74.82
2018-09-20T05:18:08.801Z,74.17
2018-09-20T05:20:37.748Z,74.59
2018-09-20T05:23:06.785Z,74.36
2018-09-20T05:25:35.664Z,74.51
2018-09-20T05:28:04.579Z,75.48
2018-09-20T05:30:33.500Z,75.47
2018-09-20T05:33:02.427Z,75.15
2018-09-20T05:35:31.309Z,74.75
2018-09-20T05:38:00.175Z,74.65
2018-09-20T05:40:29.087Z,74.61
2018-09-20T05:42:58.256Z,75.40
2018-09-20T05:45:27.147Z,75.43
2018-09-20T05:47:56.065Z,74.88
2018-09-20T05:50:24.950Z,75.52
2018-09-20T05:52:53.868Z,75.58
2018-09-20T05:55:22.785Z,75.67
2018-09-20T05:57:51.668Z,75.87
2018-09-20T06:00:20.617Z,75.42
2018-09-20T06:02:49.472Z,76.17
2018-09-20T06:05:18.606Z,74.88
2018-09-20T06:07:47.477Z,75.87
2018-09-20T06:10:16.401Z,76.09
2018-09-20T06:12:45.482Z,75.65
2018-09-20T06:15:14.396Z,75.80
2018-09-20T06:17:43.286Z,76.24
2018-09-20T06:20:12.207Z,75.36
2018-09-20T06:22:41.078Z,75.21
2018-09-20T06:25:09.990Z,76.25
2018-09-20T06:27:38.940Z,75.69
2018-09-20T06:30:08.062Z,76.22
2018-09-20T06:32:36.990Z,75.68
2018-09-20T06:35:05.976Z,75.50
2018-09-20T06:37:34.944Z,75.33
2018-09-20T06:40:03.993Z,75.18
2018-09-20T06:42:32.931Z,75.06
2018-09-20T06:45:02.008Z,75.43
2018-09-20T06:47:30.925Z,75.74
2018-09-20T06:49:59.802Z,75.77
2018-09-20T06:52:28.735Z,75.00
2018-09-20T06:54:57.622Z,75.36
2018-09-20T06:57:27.266Z,74.81
2018-09-20T06:59:56.389Z,75.21
2018-09-20T07:02:25.253Z,75.35
2018-09-20T07:04:54.155Z,75.32
2018-09-20T07:07:23.070Z,74.89
2018-09-20T07:09:52.016Z,75.64
2018-09-20T07:12:20.905Z,74.81
2018-09-20T07:14:49.789Z,75.58
2018-09-20T07:17:18.720Z,74.49
2018-09-20T07:19:47.619Z,74.01
2018-09-20T07:22:16.524Z,74.47
2018-09-20T07:24:45.661Z,73.57
2018-09-20T07:27:14.550Z,74.11
2018-09-20T07:29:43.553Z,74.83
2018-09-20T07:32:12.439Z,73.29
2018-09-20T07:34:41.297Z,72.94
2018-09-20T07:37:10.225Z,74.03
2018-09-20T07:39:39.084Z,73.88
2018-09-20T07:42:08.037Z,72.95
2018-09-20T07:44:36.889Z,73.95
2018-09-20T07:47:05.770Z,73.90
2018-09-20T07:49:34.706Z,73.14
2018-09-20T07:52:03.644Z,72.46
2018-09-20T07:54:32.576Z,72.53
2018-09-20T07:57:01.688Z,72.26
2018-09-20T07:59:30.657Z,72.40
2018-09-20T08:01:59.650Z,72.17
2018-09-20T08:04:28.527Z,73.27
2018-09-20T08:06:57.460Z,72.02
2018-09-20T08:09:26.346Z,72.41
2018-09-20T08:11:55.223Z,72.59
2018-09-20T08:14:24.221Z,72.89
2018-09-20T08:16:53.102Z,73.11
2018-09-20T08:19:21.963Z,73.14
2018-09-20T08:21:50.893Z,72.90
2018-09-20T08:24:19.810Z,72.33
2018-09-20T08:26:48.684Z,72.87
2018-09-20T08:29:17.564Z,72.44
2018-09-20T08:31:46.513Z,71.84
2018-09-20T08:34:15.438Z,71.30
2018-09-20T08:36:44.383Z,71.51
2018-09-20T08:39:13.673Z,70.72
2018-09-20T08:41:42.519Z,71.29
2018-09-20T08:44:11.462Z,70.64
2018-09-20T08:46:40.491Z,70.94
2018-09-20T08:49:09.371Z,71.44
2018-09-20T08:51:38.302Z,71.11
2018-09-20T08:54:07.345Z,70.46
2018-09-20T08:56:36.238Z,70.34
2018-09-20T08:59:05.144Z,71.05
2018-09-20T09:01:34.043Z,69.99
2018-09-20T09:04:02.956Z,69.67
2018-09-20T09:06:31.836Z,70.34
2018-09-20T09:09:00.892Z,69.45
2018-09-20T09:11:29.803Z,68.80
2018-09-20T09:13:58.751Z,69.20
2018-09-20T09:16:27.644Z,69.23
2018-09-20T09:18:56.730Z,68.78
2018-09-20T09:21:25.636Z,68.29
2018-09-20T09:23:54.515Z,67.16
2018-09-20T09:26:23.593Z,66.89
2018-09-20T09:28:52.585Z,67.11
2018-09-20T09:31:21.475Z,68.34
2018-09-20T09:33:50.361Z,67.53
2018-09-20T09:36:19.239Z,67.13
2018-09-20T09:38:48.142Z,66.17
2018-09-20T09:41:17.202Z,65.88
2018-09-20T09:43:46.172Z,65.28
2018-09-20T09:46:15.551Z,65.53
2018-09-20T09:48:44.538Z,64.62
2018-09-20T09:51:13.417Z,64.50
2018-09-20T09:53:42.407Z,63.91
2018-09-20T09:56:11.358Z,64.56
2018-09-20T09:58:40.439Z,65.24
2018-09-20T10:01:09.303Z,63.74
2018-09-20T10:03:38.189Z,63.71
2018-09-20T10:06:07.115Z,63.37
2018-09-20T10:08:36.075Z,62.82
2018-09-20T10:11:05.003Z,62.71
2018-09-20T10:13:33.968Z,62.82
2018-09-20T10:16:03.607Z,63.42
2018-09-20T10:18:32.544Z,63.07
2018-09-20T10:21:01.417Z,61.76
2018-09-20T10:23:30.348Z,62.55
2018-09-20T10:25:59.247Z,61.71
2018-09-20T10:28:28.200Z,61.59
2018-09-20T10:30:57.753Z,60.15
2018-09-20T10:33:26.748Z,61.55
2018-09-20T10:35:55.802Z,61.92
2018-09-20T10:38:24.718Z,60.16
2018-09-20T10:40:53.646Z,58.98
2018-09-20T10:43:22.589Z,58.64
2018-09-20T10:45:51.509Z,58.86
2018-09-20T10:48:20.414Z,59.12
2018-09-20T10:50:49.347Z,58.96
2018-09-20T10:53:18.260Z,58.41
2018-09-20T10:55:47.308Z,58.50
2018-09-20T10:58:16.220Z,59.16
2018-09-20T11:00:45.343Z,58.15
2018-09-20T11:03:14.297Z,58.96
2018-09-20T11:05:43.260Z,58.87
2018-09-20T11:08:12.773Z,57.61
2018-09-20T11:10:41.863Z,57.32
2018-09-20T11:13:10.774Z,57.96
2018-09-20T11:15:39.656Z,57.69
2018-09-20T11:18:08.798Z,57.66
2018-09-20T11:20:37.667Z,57.94
2018-09-20T11:23:06.595Z,59.29
2018-09-20T11:25:35.641Z,56.52
2018-09-20T11:28:04.597Z,55.57
2018-09-20T11:30:33.499Z,55.69
2018-09-20T11:33:02.956Z,55.82
2018-09-20T11:35:31.854Z,57.65
2018-09-20T11:38:00.748Z,55.63
2018-09-20T11:40:29.695Z,56.88
2018-09-20T11:42:58.773Z,56.85
2018-09-20T11:45:27.656Z,55.83
2018-09-20T11:47:56.600Z,56.71
2018-09-20T11:50:25.497Z,55.27
2018-09-20T11:52:54.416Z,55.70
2018-09-20T11:55:23.302Z,56.08
2018-09-20T11:57:52.211Z,55.54
2018-09-20T12:00:22.088Z,55.33
2018-09-20T12:02:52.390Z,55.42
2018-09-20T12:05:21.743Z,55.84
2018-09-20T12:07:50.609Z,55.49
2018-09-20T12:10:19.890Z,54.76
2018-09-20T12:12:49.048Z,54.60
2018-09-20T12:15:17.994Z,55.38
2018-09-20T12:17:46.873Z,53.71
2018-09-20T12:20:15.978Z,53.47
2018-09-20T12:22:44.858Z,53.61
2018-09-20T12:25:13.747Z,53.07
2018-09-20T12:27:42.765Z,52.83
2018-09-20T12:30:11.633Z,53.17
2018-09-20T12:32:40.574Z,53.11
2018-09-20T12:35:09.452Z,53.98
2018-09-20T12:37:39.141Z,53.63
2018-09-20T12:40:09.140Z,53.95
2018-09-20T12:42:38.088Z,53.34
2018-09-20T12:45:07.277Z,52.87
2018-09-20T12:47:36.202Z,53.08
2018-09-20T12:50:05.112Z,53.35
2018-09-20T12:52:34.046Z,52.84
2018-09-20T12:55:02.908Z,52.40
2018-09-20T12:57:31.887Z,53.21
2018-09-20T13:00:00.917Z,53.52
2018-09-20T13:02:29.784Z,54.32
2018-09-20T13:04:58.675Z,53.97
2018-09-20T13:07:27.593Z,53.22
2018-09-20T13:09:56.788Z,52.92
2018-09-20T13:12:25.735Z,53.77
2018-09-20T13:14:54.733Z,53.52
2018-09-20T13:17:23.679Z,52.96
2018-09-20T13:19:52.592Z,52.62
2018-09-20T13:22:21.427Z,52.77
2018-09-20T13:24:50.549Z,52.86
2018-09-20T13:27:20.597Z,51.32
2018-09-20T13:29:49.475Z,51.44
2018-09-20T13:32:18.638Z,52.03
2018-09-20T13:34:47.574Z,51.85
2018-09-20T13:37:16.545Z,52.04
2018-09-20T13:39:45.582Z,53.23
2018-09-20T13:42:14.830Z,52.93
2018-09-20T13:44:43.763Z,52.72
2018-09-20T13:47:12.721Z,52.47
2018-09-20T13:49:41.629Z,52.57
2018-09-20T13:52:10.606Z,51.95
2018-09-20T13:54:39.577Z,52.83
2018-09-20T13:57:08.651Z,52.41
2018-09-20T13:59:37.545Z,53.48
2018-09-20T14:02:06.573Z,51.66
2018-09-20T14:04:35.452Z,51.79
2018-09-20T14:07:04.368Z,51.11
2018-09-20T14:09:33.283Z,52.54
2018-09-20T14:12:02.211Z,51.20
2018-09-20T14:14:31.112Z,51.79
2018-09-20T14:17:00.011Z,52.17
2018-09-20T14:19:28.938Z,52.51
2018-09-20T14:21:57.831Z,51.26
2018-09-20T14:24:26.705Z,51.75
2018-09-20T14:26:55.680Z,52.40
2018-09-20T14:29:24.559Z,52.81
2018-09-20T14:31:53.454Z,52.13
2018-09-20T14:34:22.432Z,52.70
2018-09-20T14:36:51.316Z,52.85
2018-09-20T14:39:20.215Z,52.16
2018-09-20T14:41:49.093Z,53.03
2018-09-20T14:44:18.018Z,53.11
2018-09-20T14:46:46.984Z,52.18
2018-09-20T14:49:15.863Z,52.90
2018-09-20T14:51:44.768Z,51.77
2018-09-20T14:54:13.639Z,52.14
2018-09-20T14:56:42.499Z,52.47
2018-09-20T14:59:11.705Z,52.94
2018-09-20T15:01:40.678Z,52.07
2018-09-20T15:04:09.541Z,52.18
2018-09-20T15:06:38.459Z,52.97
2018-09-20T15:09:09.961Z,52.45
2018-09-20T15:11:38.892Z,51.89
2018-09-20T15:14:07.811Z,52.51
2018-09-20T15:16:36.689Z,51.50
2018-09-20T15:19:05.763Z,52.47
2018-09-20T15:21:34.680Z,51.81
2018-09-20T15:24:03.859Z,52.00
2018-09-20T15:26:32.805Z,51.54
2018-09-20T15:29:01.704Z,52.48
2018-09-20T15:31:30.607Z,52.26
2018-09-20T15:33:59.505Z,51.43
2018-09-20T15:36:28.413Z,52.59
2018-09-20T15:38:57.429Z,51.99
2018-09-20T15:41:26.326Z,51.23
2018-09-20T15:43:55.245Z,51.77
2018-09-20T15:46:24.339Z,51.21
2018-09-20T15:48:53.268Z,50.06
2018-09-20T15:51:22.177Z,50.56
2018-09-20T15:53:51.118Z,50.67
2018-09-20T15:56:20.033Z,50.30
2018-09-20T15:58:48.919Z,50.20
2018-09-20T16:01:17.972Z,49.67
2018-09-20T16:03:46.872Z,49.39
2018-09-20T16:06:15.729Z,49.96
2018-09-20T16:08:44.835Z,50.28
2018-09-20T16:11:13.693Z,49.83
2018-09-20T16:13:42.563Z,49.98
2018-09-20T16:16:11.612Z,50.56
2018-09-20T16:18:40.492Z,51.03
2018-09-20T16:21:09.359Z,49.73
2018-09-20T16:23:38.385Z,50.50
2018-09-20T16:26:39.266Z,50.95
2018-09-20T16:29:54.044Z,51.13
2018-09-20T16:34:34.361Z,49.85
2018-09-20T16:37:10.409Z,50.14
2018-09-20T16:39:40.111Z,50.15
2018-09-20T16:42:10.178Z,50.20
2018-09-20T16:44:39.048Z,50.55
2018-09-20T16:47:07.965Z,50.02
2018-09-20T16:49:36.831Z,50.83
2018-09-20T16:52:05.701Z,51.29
2018-09-20T16:54:34.610Z,51.01
2018-09-20T16:57:03.517Z,51.39
2018-09-20T16:59:32.435Z,51.07
2018-09-20T17:02:01.307Z,51.65
2018-09-20T17:04:30.211Z,51.15
2018-09-20T17:06:59.139Z,51.68
2018-09-20T17:09:28.030Z,53.36
2018-09-20T17:11:57.280Z,52.71
2018-09-20T17:14:26.226Z,53.34
2018-09-20T17:16:55.108Z,54.33
2018-09-20T17:19:24.167Z,55.53
2018-09-20T17:21:53.066Z,54.62
2018-09-20T17:24:21.950Z,54.76
2018-09-20T17:26:50.872Z,54.84
2018-09-20T17:29:19.974Z,53.90
2018-09-20T17:31:48.839Z,53.27
2018-09-20T17:34:17.883Z,52.92
2018-09-20T17:36:47.204Z,53.69
2018-09-20T17:39:16.971Z,52.86
2018-09-20T17:41:47.328Z,54.18
2018-09-20T17:44:17.019Z,54.97
2018-09-20T17:46:45.947Z,55.36
2018-09-20T17:49:14.837Z,55.04
2018-09-20T17:51:44.007Z,54.62
2018-09-20T17:54:13.269Z,55.72
2018-09-20T17:56:42.455Z,55.80
2018-09-20T17:59:11.370Z,54.24
2018-09-20T18:01:40.244Z,55.88
2018-09-20T18:04:09.439Z,56.65
2018-09-20T18:06:38.334Z,55.91
2018-09-20T18:09:08.678Z,54.94
2018-09-20T18:11:38.805Z,56.54
2018-09-20T18:14:07.704Z,56.00
2018-09-20T18:16:36.632Z,55.85
2018-09-20T18:19:05.534Z,55.64
2018-09-20T18:21:34.460Z,55.78
2018-09-20T18:24:03.381Z,56.17
2018-09-20T18:26:32.270Z,55.59
2018-09-20T18:29:01.251Z,56.83
2018-09-20T18:31:30.175Z,57.39
2018-09-20T18:33:59.162Z,56.89
2018-09-20T18:36:28.257Z,57.44
2018-09-20T18:38:57.197Z,57.38
2018-09-20T18:41:26.096Z,57.75
2018-09-20T18:43:55.037Z,58.74
2018-09-20T18:46:23.950Z,58.77
2018-09-20T18:48:52.845Z,58.67
2018-09-20T18:51:21.774Z,58.69
2018-09-20T18:53:50.666Z,59.19
2018-09-20T18:56:19.573Z,58.40
2018-09-20T18:58:48.463Z,58.67
2018-09-20T19:01:17.502Z,58.63
2018-09-20T19:03:46.443Z,59.15
2018-09-20T19:06:15.372Z,60.02
2018-09-20T19:08:44.283Z,59.80
2018-09-20T19:11:13.204Z,60.42
2018-09-20T19:13:42.169Z,60.60
2018-09-20T19:16:11.229Z,60.70
2018-09-20T19:18:40.535Z,59.87
2018-09-20T19:21:09.422Z,60.71
2018-09-20T19:23:38.294Z,58.99
2018-09-20T19:26:07.481Z,60.42
2018-09-20T19:28:36.393Z,60.06
2018-09-20T19:31:05.344Z,60.16
2018-09-20T19:33:34.269Z,60.31
2018-09-20T19:36:03.169Z,61.59
2018-09-20T19:38:32.046Z,61.84
2018-09-20T19:41:01.494Z,61.80
2018-09-20T19:43:30.399Z,61.62
2018-09-20T19:45:59.283Z,62.34
2018-09-20T19:48:28.208Z,61.66
2018-09-20T19:50:57.286Z,62.13
2018-09-20T19:53:26.237Z,61.75
2018-09-20T19:55:55.214Z,62.31
2018-09-20T19:58:24.284Z,62.02
2018-09-20T20:00:53.197Z,62.76
2018-09-20T20:03:22.078Z,62.51
2018-09-20T20:05:51.018Z,62.11
2018-09-20T20:08:19.901Z,62.21
2018-09-20T20:10:48.816Z,61.61
2018-09-20T20:13:17.762Z,62.16
2018-09-20T20:15:46.690Z,62.18
2018-09-20T20:18:15.603Z,61.85
2018-09-20T20:20:44.530Z,62.23
2018-09-20T20:23:13.482Z,62.05
2018-09-20T20:25:42.363Z,62.91
2018-09-20T20:28:11.313Z,62.40
2018-09-20T20:30:40.375Z,61.44
2018-09-20T20:33:09.296Z,62.06
2018-09-20T20:35:38.259Z,62.04
2018-09-20T20:38:07.286Z,61.65
2018-09-20T20:40:36.197Z,60.88
2018-09-20T20:43:05.112Z,62.25
2018-09-20T20:45:34.062Z,62.27
2018-09-20T20:48:02.983Z,62.78
2018-09-20T20:50:31.923Z,62.87
2018-09-20T20:53:00.849Z,63.03
2018-09-20T20:55:29.720Z,63.67
2018-09-20T20:57:58.591Z,63.57
2018-09-20T21:00:27.533Z,63.86
2018-09-20T21:02:56.480Z,64.34
2018-09-20T21:05:25.407Z,64.08
2018-09-20T21:07:54.429Z,64.32
2018-09-20T21:10:23.368Z,64.15
2018-09-20T21:12:52.276Z,63.73
2018-09-20T21:15:21.292Z,64.10
2018-09-20T21:17:50.312Z,64.68
2018-09-20T21:20:19.241Z,63.86
2018-09-20T21:22:48.202Z,63.09
2018-09-20T21:25:17.316Z,63.62
2018-09-20T21:27:46.248Z,63.77
2018-09-20T21:30:15.090Z,63.18
2018-09-20T21:32:44.021Z,63.93
2018-09-20T21:35:12.939Z,63.49
2018-09-20T21:37:41.960Z,63.14
2018-09-20T21:40:10.866Z,63.91
2018-09-20T21:42:39.926Z,64.12
2018-09-20T21:45:08.825Z,64.31
2018-09-20T21:47:37.705Z,64.54
2018-09-20T21:50:07.159Z,64.28
2018-09-20T21:52:36.048Z,64.60
2018-09-20T21:55:04.983Z,64.52
2018-09-20T21:57:34.059Z,64.15
2018-09-20T22:00:03.006Z,63.54
2018-09-20T22:02:37.180Z,64.09
2018-09-20T22:05:06.123Z,64.25
2018-09-20T22:07:35.060Z,65.09
2018-09-20T22:10:03.997Z,65.31
2018-09-20T22:12:33.196Z,64.25
2018-09-20T22:15:02.208Z,64.39
2018-09-20T22:17:31.232Z,65.53
2018-09-20T22:20:00.148Z,65.13
2018-09-20T22:22:29.056Z,64.62
2018-09-20T22:24:58.091Z,65.27
2018-09-20T22:27:27.142Z,65.33
2018-09-20T22:29:56.168Z,65.30
2018-09-20T22:32:25.054Z,65.32
2018-09-20T22:34:54.079Z,66.10
2018-09-20T22:37:23.019Z,66.14
2018-09-20T22:39:51.921Z,66.81
2018-09-20T22:42:20.781Z,66.31
2018-09-20T22:44:49.728Z,67.10
2018-09-20T22:47:18.634Z,66.27
2018-09-20T22:49:47.504Z,66.20
2018-09-20T22:52:16.604Z,66.21
2018-09-20T22:54:45.490Z,66.38
2018-09-20T22:57:14.542Z,66.22
2018-09-20T22:59:44.139Z,65.44
2018-09-20T23:02:13.086Z,65.91
2018-09-20T23:04:41.970Z,64.91
2018-09-20T23:07:10.923Z,65.70
2018-09-20T23:09:39.763Z,65.56
2018-09-20T23:12:08.696Z,65.88
2018-09-20T23:14:37.639Z,66.51
2018-09-20T23:17:06.548Z,66.32
2018-09-20T23:19:35.501Z,65.21
2018-09-20T23:22:04.423Z,65.45
2018-09-20T23:24:33.327Z,65.62
2018-09-20T23:27:02.236Z,66.36
2018-09-20T23:29:31.185Z,66.91
2018-09-20T23:32:00.100Z,66.95
2018-09-20T23:34:28.977Z,66.86
2018-09-20T23:36:57.903Z,67.73
2018-09-20T23:39:26.939Z,67.08
2018-09-20T23:41:55.830Z,67.62
2018-09-20T23:44:24.763Z,67.56
2018-09-20T23:46:53.697Z,67.59
2018-09-20T23:49:22.612Z,68.12
2018-09-20T23:51:51.514Z,68.22
2018-09-20T23:54:20.446Z,67.55
2018-09-20T23:56:49.337Z,67.34
2018-09-20T23:59:18.255Z,68.17
